createdAt,value
2023-05-23T06:21:47.963Z,13.16
2023-05-23T06:31:48.035Z,13.16
2023-05-23T06:41:47.911Z,13.18
2023-05-23T06:51:47.925Z,13.17
2023-05-23T07:01:48.098Z,13.18
2023-05-23T07:11:48.074Z,13.13
2023-05-23T07:21:48.117Z,13.00
2023-05-23T07:31:48.234Z,12.92
2023-05-23T07:41:48.118Z,12.79
2023-05-23T07:51:48.000Z,12.84
2023-05-23T08:01:48.066Z,12.84
2023-05-23T08:11:47.965Z,12.59
2023-05-23T08:21:48.019Z,12.48
2023-05-23T08:31:48.005Z,12.37
2023-05-23T08:41:48.240Z,12.32
2023-05-23T08:51:48.152Z,12.21
2023-05-23T09:01:48.130Z,12.03
2023-05-23T09:11:48.086Z,12.03
2023-05-23T09:21:48.200Z,12.04
2023-05-23T09:31:48.389Z,12.02
2023-05-23T09:41:48.332Z,11.78
2023-05-23T09:51:48.126Z,11.65
2023-05-23T10:01:48.364Z,11.56
2023-05-23T10:11:48.136Z,11.76
2023-05-23T10:21:48.231Z,11.42
2023-05-23T10:31:48.251Z,11.49
2023-05-23T10:41:48.218Z,11.34
2023-05-23T10:51:50.318Z,11.24
2023-05-23T11:01:48.264Z,11.24
2023-05-23T11:11:48.235Z,11.06
2023-05-23T11:21:48.383Z,11.16
2023-05-23T11:31:48.575Z,11.21
2023-05-23T11:41:48.239Z,11.10
2023-05-23T11:51:48.377Z,11.17
2023-05-23T12:01:48.229Z,11.39
2023-05-23T12:11:48.346Z,11.55
2023-05-23T12:21:48.379Z,11.70
2023-05-23T12:31:48.475Z,12.26
2023-05-23T12:41:48.498Z,12.27
2023-05-23T12:51:48.406Z,12.73
2023-05-23T13:01:48.352Z,12.68
2023-05-23T13:11:48.425Z,12.84
2023-05-23T13:21:49.865Z,13.05
2023-05-23T13:31:48.347Z,13.42
2023-05-23T13:41:48.327Z,13.81
2023-05-23T13:51:48.447Z,13.79
2023-05-23T14:01:48.474Z,14.02
2023-05-23T14:11:48.579Z,13.69
2023-05-23T14:21:48.453Z,13.92
2023-05-23T14:31:48.644Z,13.93
2023-05-23T14:41:48.514Z,13.74
2023-05-23T14:51:51.347Z,14.77
2023-05-23T15:01:48.554Z,14.19
2023-05-23T15:11:48.575Z,13.85
2023-05-23T15:21:51.395Z,13.40
2023-05-23T15:31:48.557Z,13.75
2023-05-23T15:41:48.528Z,13.84
2023-05-23T15:51:48.530Z,13.08
2023-05-23T16:01:48.569Z,12.96
2023-05-23T16:11:48.461Z,13.20
2023-05-23T16:21:48.638Z,12.97
2023-05-23T16:31:48.631Z,13.00
2023-05-23T16:41:48.467Z,13.09
2023-05-23T16:51:48.925Z,13.05
2023-05-23T17:01:48.783Z,13.04
2023-05-23T17:11:48.429Z,13.01
2023-05-23T17:21:48.635Z,12.94
2023-05-23T17:31:48.693Z,12.61
2023-05-23T17:41:48.549Z,12.16
2023-05-23T17:51:48.566Z,11.78
2023-05-23T18:01:48.568Z,11.82
2023-05-23T18:11:48.635Z,11.59
2023-05-23T18:21:48.895Z,11.43
2023-05-23T18:31:49.071Z,11.18
2023-05-23T18:41:49.036Z,10.92
2023-05-23T18:51:49.323Z,10.67
2023-05-23T19:01:49.292Z,10.41
2023-05-23T19:11:49.429Z,10.14
2023-05-23T19:21:49.707Z,9.91
